Lucien, Oklahoma
Current Conditions -  °F | °C
As of 9:15 PM on Monday 20 Oct 2014 (Local Time) from KWDG Reporting Station
Clear Clear  
Wind Chill: 68°   Ceiling: Unl
Heat Index: 68°   Visibility: 10mi
Dew Point: 61°   Wind: 10mph
Humidity: 78%   Direction: 90°E
Pressure: 30.04"   Gusts: NA
Location:  36.27°N, 97.46°W
Report Text: KWDG 210215Z AUTO 09009KT 10SM CLR 20/16 A3004 RMK AO2
Loading
Personal Weather Stations






























Interactive Weather Map
Tropical Storm Tracking
New forecast layout! Learn more

10-Day Weather Forecast

Advertisements
Track Severe Weather on mobile